Time;durP1;ratioP1;P1;durP2;ratioP2;P2;SDS_P1;SDS_P2;PMS_P1;PMS_P2;Temp;Humidity;BMP_temperature;BMP_pressure;BME280_temperature;BME280_humidity;BME280_pressure;Samples;Min_cycle;Max_cycle;Signal;HPM_P1;HPM_P2
2021/07/25 00:02:15;;;;;;;4.13;1.90;;;;;;;17.64;56.83;101257.38;5078164;28;20676;-73
2021/07/25 00:04:44;;;;;;;8.57;2.10;;;;;;;17.62;56.89;101267.53;5090241;28;20212;-72
2021/07/25 00:07:12;;;;;;;3.77;2.30;;;;;;;17.60;57.43;101275.81;5079582;28;20258;-73
2021/07/25 00:09:41;;;;;;;3.20;2.13;;;;;;;17.52;57.63;101269.34;5073059;28;20287;-66
2021/07/25 00:12:10;;;;;;;3.47;2.00;;;;;;;17.45;58.38;101270.88;5084750;28;20204;-66
2021/07/25 00:14:39;;;;;;;4.67;1.90;;;;;;;17.41;57.89;101273.00;5085312;28;20637;-66
2021/07/25 00:17:07;;;;;;;3.27;2.20;;;;;;;17.31;57.73;101263.94;5080935;28;20263;-66
2021/07/25 00:19:36;;;;;;;3.47;2.23;;;;;;;17.34;57.67;101266.41;5080469;28;20557;-67
2021/07/25 00:22:07;;;;;;;2.63;2.00;;;;;;;17.33;58.09;101267.38;5085270;28;20228;-66
2021/07/25 00:24:37;;;;;;;4.20;2.43;;;;;;;17.27;58.01;101266.06;5081186;28;20267;-65
2021/07/25 00:27:06;;;;;;;2.80;1.80;;;;;;;17.22;57.47;101262.06;5085419;28;20255;-73
2021/07/25 00:29:34;;;;;;;3.17;2.23;;;;;;;17.25;57.89;101262.63;5083434;28;20223;-73
2021/07/25 00:32:05;;;;;;;6.27;2.10;;;;;;;17.03;57.74;101236.50;5085933;28;20593;-73
2021/07/25 00:34:34;;;;;;;2.90;2.00;;;;;;;17.14;58.60;101261.84;5083371;28;20628;-73
2021/07/25 00:37:02;;;;;;;3.30;2.07;;;;;;;16.65;58.60;101195.53;5077364;28;20219;-73
2021/07/25 00:39:32;;;;;;;5.77;2.00;;;;;;;16.97;58.68;101257.88;5084302;28;20204;-73
2021/07/25 00:42:00;;;;;;;2.60;2.07;;;;;;;17.05;58.16;101264.38;5083283;28;20755;-73
2021/07/25 00:44:28;;;;;;;5.37;2.47;;;;;;;17.01;58.00;101262.06;5088832;28;20705;-66
2021/07/25 00:46:59;;;;;;;2.30;1.80;;;;;;;16.99;58.64;101267.63;5089800;28;20200;-66
2021/07/25 00:49:29;;;;;;;4.43;2.27;;;;;;;16.94;58.48;101263.59;5078897;28;20624;-66
2021/07/25 00:51:57;;;;;;;3.13;1.70;;;;;;;16.92;58.25;101273.72;5086080;28;20211;-66
2021/07/25 00:54:25;;;;;;;3.60;2.17;;;;;;;16.87;58.72;101265.09;5088442;28;20632;-66
2021/07/25 00:56:55;;;;;;;3.77;2.23;;;;;;;16.35;58.99;101193.56;5089355;28;20197;-72
2021/07/25 00:59:23;;;;;;;2.70;1.80;;;;;;;16.77;59.00;101279.44;5082898;28;20199;-68
2021/07/25 01:01:52;;;;;;;2.73;2.30;;;;;;;16.77;58.64;101265.88;5078378;28;20208;-74
2021/07/25 01:04:37;;;;;;;2.87;1.93;;;;;;;16.73;59.17;101271.69;5079361;28;20200;-67
2021/07/25 01:07:17;;;;;;;3.67;2.00;;;;;;;16.64;58.67;101262.47;5094964;28;20212;-67
2021/07/25 01:09:52;;;;;;;4.10;2.20;;;;;;;16.65;59.14;101266.03;5079410;28;20211;-73
2021/07/25 01:12:25;;;;;;;2.93;1.90;;;;;;;16.63;59.27;101268.03;5081385;28;20279;-67
2021/07/25 01:14:54;;;;;;;2.33;1.70;;;;;;;16.59;58.95;101256.56;5075784;28;20200;-74
2021/07/25 01:17:33;;;;;;;4.47;2.23;;;;;;;16.60;59.05;101263.72;5072116;28;20596;-67
2021/07/25 01:20:05;;;;;;;4.17;2.00;;;;;;;16.60;58.61;101262.88;5073708;28;20254;-66
2021/07/25 01:22:35;;;;;;;2.60;1.80;;;;;;;16.13;58.64;101189.09;5086835;28;20608;-73
2021/07/25 01:25:05;;;;;;;2.80;2.07;;;;;;;16.58;58.69;101271.13;5074743;28;20197;-73
2021/07/25 01:27:40;;;;;;;2.33;1.87;;;;;;;16.07;58.93;101186.91;5079782;28;20709;-73
2021/07/25 01:30:14;;;;;;;2.13;1.80;;;;;;;16.52;58.51;101270.75;5085447;28;20203;-73
2021/07/25 01:32:44;;;;;;;3.60;1.80;;;;;;;16.47;58.55;101273.88;5083478;28;20200;-73
2021/07/25 01:35:14;;;;;;;3.60;2.00;;;;;;;16.43;58.62;101272.41;5080603;28;20209;-72
2021/07/25 01:37:45;;;;;;;3.03;2.00;;;;;;;16.34;59.23;101282.19;5079489;28;20220;-72
2021/07/25 01:40:16;;;;;;;2.47;1.70;;;;;;;16.26;60.11;101276.53;5078481;28;20196;-72
2021/07/25 01:42:44;;;;;;;2.73;1.87;;;;;;;16.25;59.25;101280.25;5086368;28;20205;-70
2021/07/25 01:45:14;;;;;;;2.80;2.00;;;;;;;16.25;59.03;101276.66;5086555;28;20668;-67
2021/07/25 01:47:42;;;;;;;2.70;1.90;;;;;;;16.16;59.59;101270.13;5083779;28;20239;-72
2021/07/25 01:50:13;;;;;;;3.00;2.00;;;;;;;15.70;59.80;101202.66;5088961;28;20215;-72
2021/07/25 01:52:41;;;;;;;4.07;2.00;;;;;;;16.06;59.50;101267.34;5074725;28;20197;-72
2021/07/25 01:55:10;;;;;;;3.13;1.77;;;;;;;16.09;59.57;101285.19;5078677;28;20201;-66
2021/07/25 01:57:38;;;;;;;3.20;1.90;;;;;;;16.06;59.74;101285.44;5073873;28;20674;-72
2021/07/25 02:00:09;;;;;;;2.40;2.00;;;;;;;15.99;59.50;101273.41;5085672;28;20212;-66
2021/07/25 02:02:37;;;;;;;3.20;2.00;;;;;;;15.99;60.02;101290.50;5077520;28;20505;-66
2021/07/25 02:05:06;;;;;;;2.37;1.90;;;;;;;15.94;60.01;101292.75;5091900;28;20201;-66
2021/07/25 02:07:37;;;;;;;2.47;1.90;;;;;;;15.94;59.84;101289.16;5091098;28;20192;-72
2021/07/25 02:10:06;;;;;;;3.07;2.00;;;;;;;15.91;59.52;101294.81;5081935;28;20196;-73
2021/07/25 02:12:34;;;;;;;2.13;1.87;;;;;;;15.91;59.68;101295.66;5082104;28;20215;-72
2021/07/25 02:15:02;;;;;;;4.27;2.00;;;;;;;15.91;59.25;101306.50;5088466;28;20213;-66
2021/07/25 02:17:30;;;;;;;2.20;1.80;;;;;;;15.86;59.97;101295.19;5084224;28;20213;-66
2021/07/25 02:19:58;;;;;;;4.47;2.13;;;;;;;15.85;59.30;101301.59;5090087;28;20211;-66
2021/07/25 02:22:26;;;;;;;2.90;2.00;;;;;;;15.79;59.92;101305.66;5091707;28;20224;-66
2021/07/25 02:24:59;;;;;;;1.80;1.63;;;;;;;15.76;60.25;101300.50;5086646;28;20205;-67
2021/07/25 02:27:27;;;;;;;6.90;1.97;;;;;;;15.73;60.37;101305.31;5079677;28;20205;-73
2021/07/25 02:29:55;;;;;;;5.80;2.03;;;;;;;15.57;60.43;101283.09;5084235;28;20205;-72
2021/07/25 02:32:23;;;;;;;4.10;2.13;;;;;;;15.60;60.62;101293.72;5072385;28;20193;-73
2021/07/25 02:34:52;;;;;;;3.60;2.03;;;;;;;15.63;60.10;101302.47;5083359;28;20231;-66
2021/07/25 02:37:20;;;;;;;3.50;1.97;;;;;;;15.68;60.28;101313.81;5090666;28;20676;-66
2021/07/25 02:39:48;;;;;;;2.87;2.00;;;;;;;15.67;59.65;101317.50;5074557;28;20719;-65
2021/07/25 02:42:18;;;;;;;2.80;1.90;;;;;;;15.65;59.50;101305.06;5078382;28;20218;-72
2021/07/25 02:44:46;;;;;;;4.20;1.93;;;;;;;15.68;59.72;101312.94;5088295;28;20205;-72
2021/07/25 02:47:15;;;;;;;2.30;1.90;;;;;;;15.57;60.19;101307.47;5084259;28;20219;-72
2021/07/25 02:49:43;;;;;;;2.30;1.90;;;;;;;15.62;60.53;101322.41;5089820;28;20223;-72
2021/07/25 02:52:11;;;;;;;2.23;1.87;;;;;;;15.63;60.31;101326.00;5077656;28;20567;-72
2021/07/25 02:54:39;;;;;;;3.47;1.97;;;;;;;15.63;59.62;101328.69;5089262;28;20206;-72
2021/07/25 02:57:07;;;;;;;2.00;1.80;;;;;;;15.59;60.55;101329.91;5089967;28;20692;-72
2021/07/25 02:59:37;;;;;;;3.17;2.10;;;;;;;15.60;60.55;101332.47;5074817;28;20300;-73
2021/07/25 03:02:05;;;;;;;2.67;2.10;;;;;;;15.61;60.68;101328.81;5086083;28;20688;-73
2021/07/25 03:04:35;;;;;;;2.97;2.00;;;;;;;15.77;60.66;101328.44;5082265;28;20283;-73
2021/07/25 03:07:03;;;;;;;2.70;1.90;;;;;;;15.98;61.92;101325.88;5086574;28;20642;-66
2021/07/25 03:09:31;;;;;;;2.57;2.20;;;;;;;16.23;61.76;101328.28;5088200;28;20193;-66
2021/07/25 03:12:00;;;;;;;3.87;2.43;;;;;;;16.45;61.84;101341.78;5075210;28;20197;-66
2021/07/25 03:14:28;;;;;;;3.63;2.50;;;;;;;16.61;61.85;101330.53;5086372;28;20546;-66
2021/07/25 03:16:57;;;;;;;4.90;2.50;;;;;;;16.79;61.70;101333.56;5089214;28;20200;-66
2021/07/25 03:19:31;;;;;;;3.47;2.30;;;;;;;16.83;61.42;101334.16;5080252;28;20220;-73
2021/07/25 03:21:59;;;;;;;3.67;1.93;;;;;;;16.77;61.89;101330.13;5080363;28;20197;-73
2021/07/25 03:24:27;;;;;;;4.77;2.20;;;;;;;16.68;61.60;101329.06;5080223;28;20271;-74
2021/07/25 03:26:55;;;;;;;4.63;2.50;;;;;;;16.64;62.23;101332.13;5090721;28;20205;-66
2021/07/25 03:29:23;;;;;;;4.20;2.10;;;;;;;16.66;61.79;101325.63;5089038;28;20477;-72
2021/07/25 03:31:51;;;;;;;4.03;2.20;;;;;;;16.76;61.66;101333.81;5088242;28;20574;-72
2021/07/25 03:34:21;;;;;;;5.43;2.10;;;;;;;16.98;60.97;101346.44;5087254;28;20219;-66
2021/07/25 03:36:49;;;;;;;3.53;2.03;;;;;;;17.12;61.49;101340.69;5082987;28;20192;-65
2021/07/25 03:39:20;;;;;;;2.63;1.83;;;;;;;16.86;61.80;101299.53;5076875;28;20213;-65
2021/07/25 03:41:48;;;;;;;3.10;2.10;;;;;;;17.03;62.72;101336.91;5075494;28;20196;-65
2021/07/25 03:44:16;;;;;;;2.83;1.90;;;;;;;16.97;62.60;101336.59;5074508;28;20677;-65
2021/07/25 03:46:45;;;;;;;4.83;2.07;;;;;;;16.89;63.39;101345.38;5069345;28;20596;-65
2021/07/25 03:49:13;;;;;;;3.67;1.90;;;;;;;16.90;62.92;101344.38;5103271;28;20215;-66
2021/07/25 03:51:43;;;;;;;2.60;1.90;;;;;;;16.81;63.63;101342.44;5089061;28;20208;-66
2021/07/25 03:54:11;;;;;;;2.90;2.07;;;;;;;16.96;63.38;101351.16;5075625;28;20240;-71
2021/07/25 03:56:40;;;;;;;2.43;1.93;;;;;;;17.07;62.74;101346.50;5080584;28;20205;-72
2021/07/25 03:59:08;;;;;;;3.00;2.30;;;;;;;17.13;62.68;101345.13;5082456;28;20219;-66
2021/07/25 04:01:36;;;;;;;2.73;1.93;;;;;;;17.02;63.36;101335.19;5081272;28;20197;-65
2021/07/25 04:04:04;;;;;;;2.10;1.90;;;;;;;17.07;62.72;101343.78;5087623;28;20300;-66
2021/07/25 04:06:33;;;;;;;2.77;1.77;;;;;;;17.04;63.12;101335.06;5084098;28;20280;-65
2021/07/25 04:09:02;;;;;;;2.10;1.73;;;;;;;17.12;63.51;101345.25;5068450;28;20229;-65
2021/07/25 04:11:30;;;;;;;3.97;2.30;;;;;;;17.13;63.40;101347.84;5087849;28;20196;-65
2021/07/25 04:13:58;;;;;;;2.87;2.00;;;;;;;17.18;63.47;101344.75;5088516;28;20275;-65
2021/07/25 04:16:27;;;;;;;4.00;1.80;;;;;;;17.22;63.74;101343.50;5088888;28;20196;-72
2021/07/25 04:18:55;;;;;;;2.27;1.90;;;;;;;17.25;64.00;101335.09;5083562;28;20235;-71
2021/07/25 04:21:23;;;;;;;2.70;1.90;;;;;;;17.29;63.85;101333.81;5077049;28;20201;-65
2021/07/25 04:23:51;;;;;;;2.90;1.90;;;;;;;17.44;63.35;101339.75;5075131;28;20239;-66
2021/07/25 04:26:21;;;;;;;2.57;2.13;;;;;;;17.54;62.30;101335.25;5082258;28;20211;-65
2021/07/25 04:28:49;;;;;;;3.13;2.20;;;;;;;17.67;62.93;101335.94;5089628;28;20204;-71
2021/07/25 04:31:18;;;;;;;2.77;2.33;;;;;;;17.68;63.56;101330.34;5087631;28;20204;-71
2021/07/25 04:33:51;;;;;;;2.13;1.90;;;;;;;17.72;63.95;101332.81;5088885;28;20205;-72
2021/07/25 04:36:25;;;;;;;3.03;2.10;;;;;;;17.71;63.49;101315.63;5078800;28;20546;-66
2021/07/25 04:38:55;;;;;;;2.40;2.10;;;;;;;17.89;63.57;101324.03;5085476;28;20301;-66
2021/07/25 04:41:26;;;;;;;2.37;1.93;;;;;;;17.95;64.67;101335.19;5079330;28;20209;-66
2021/07/25 04:44:02;;;;;;;4.43;2.10;;;;;;;18.06;64.29;101334.25;5072779;28;20201;-66
2021/07/25 04:46:34;;;;;;;2.73;1.63;;;;;;;18.17;64.13;101328.72;5082563;28;20210;-66
2021/07/25 04:49:07;;;;;;;2.30;2.10;;;;;;;18.31;63.32;101330.16;5082814;28;20196;-66
2021/07/25 04:51:38;;;;;;;4.83;2.20;;;;;;;18.40;63.64;101328.47;5071999;28;20237;-66
2021/07/25 04:54:08;;;;;;;2.73;2.07;;;;;;;18.51;64.25;101325.63;5081740;28;20220;-66
2021/07/25 04:56:54;;;;;;;3.33;2.00;;;;;;;18.62;64.44;101328.25;5081902;28;20204;-66
2021/07/25 04:59:26;;;;;;;3.43;2.00;;;;;;;18.76;63.71;101324.25;5079619;28;20223;-66
2021/07/25 05:01:59;;;;;;;2.70;2.03;;;;;;;18.87;64.29;101329.56;5084901;28;20287;-66
2021/07/25 05:04:29;;;;;;;2.10;1.90;;;;;;;18.98;65.17;101329.44;5085306;28;20258;-65
2021/07/25 05:06:57;;;;;;;2.90;2.13;;;;;;;19.08;65.84;101341.16;5079669;28;20227;-66
2021/07/25 05:09:26;;;;;;;2.47;1.80;;;;;;;19.15;66.06;101334.13;5082651;28;20324;-66
2021/07/25 05:12:09;;;;;;;2.17;1.97;;;;;;;19.30;67.18;101339.13;5085943;28;20197;-65
2021/07/25 05:14:44;;;;;;;3.47;2.03;;;;;;;19.31;67.51;101330.81;5075532;28;20520;-66
2021/07/25 05:17:18;;;;;;;2.57;2.10;;;;;;;19.59;67.52;101342.66;5084992;28;20232;-65
2021/07/25 05:19:56;;;;;;;2.20;1.97;;;;;;;19.57;67.24;101305.66;5087955;28;20235;-65
2021/07/25 05:22:42;;;;;;;1.87;1.70;;;;;;;19.95;66.60;101334.69;5085981;28;20236;-65
2021/07/25 05:25:11;;;;;;;2.17;1.70;;;;;;;20.17;65.99;101351.47;5069234;28;20231;-65
2021/07/25 05:27:43;;;;;;;3.10;1.90;;;;;;;20.38;66.05;101347.66;5086455;28;20189;-65
2021/07/25 05:30:14;;;;;;;4.23;2.00;;;;;;;20.60;65.32;101355.44;5085482;28;20549;-65
2021/07/25 05:32:42;;;;;;;4.53;2.40;;;;;;;20.78;65.60;101352.72;5081703;28;20192;-65
2021/07/25 05:35:11;;;;;;;2.27;1.90;;;;;;;21.09;64.28;101354.03;5073136;28;20193;-65
2021/07/25 05:37:40;;;;;;;2.80;2.07;;;;;;;21.14;64.29;101342.66;5074093;28;20197;-65
2021/07/25 05:40:09;;;;;;;2.10;1.87;;;;;;;21.40;64.47;101348.19;5085910;28;20242;-65
2021/07/25 05:42:39;;;;;;;2.00;1.80;;;;;;;21.72;64.08;101347.53;5091697;28;20212;-65
2021/07/25 05:45:10;;;;;;;2.40;1.87;;;;;;;22.11;63.24;101347.13;5083497;28;20246;-65
2021/07/25 05:47:38;;;;;;;2.17;1.97;;;;;;;22.24;62.31;101345.63;5088685;28;20204;-65
2021/07/25 05:50:08;;;;;;;2.20;2.00;;;;;;;22.15;61.61;101319.25;5091485;28;20254;-65
2021/07/25 05:52:48;;;;;;;3.20;1.80;;;;;;;22.55;60.77;101354.13;5089906;28;20656;-65
2021/07/25 05:55:19;;;;;;;3.17;1.90;;;;;;;22.66;59.99;101347.50;5074975;28;20203;-65
2021/07/25 05:57:47;;;;;;;3.00;1.50;;;;;;;22.85;60.25;101351.81;5081040;28;20200;-65
2021/07/25 06:00:17;;;;;;;1.87;1.77;;;;;;;23.04;59.52;101351.50;5075007;28;20209;-65
2021/07/25 06:03:04;;;;;;;2.33;1.80;;;;;;;23.15;58.87;101351.16;5076183;28;20221;-64
2021/07/25 06:05:34;;;;;;;2.23;1.70;;;;;;;23.36;58.89;101355.28;5075344;28;20280;-65
2021/07/25 06:08:05;;;;;;;2.23;1.73;;;;;;;23.65;58.06;101352.88;5083615;28;20193;-65
2021/07/25 06:10:35;;;;;;;2.13;1.90;;;;;;;23.59;57.49;101337.13;5074580;28;20737;-65
2021/07/25 06:13:05;;;;;;;2.77;1.90;;;;;;;23.87;56.88;101358.63;5082937;28;20587;-64
2021/07/25 06:15:36;;;;;;;1.90;1.70;;;;;;;24.11;55.49;101355.81;5085332;28;20205;-65
2021/07/25 06:18:06;;;;;;;3.17;1.77;;;;;;;24.24;55.74;101349.78;5089651;28;20224;-65
2021/07/25 06:20:35;;;;;;;1.67;1.57;;;;;;;24.23;54.56;101339.84;5083636;28;20311;-71
2021/07/25 06:23:03;;;;;;;3.27;1.80;;;;;;;24.29;54.70;101334.50;5085213;28;20236;-70
2021/07/25 06:25:33;;;;;;;2.97;1.77;;;;;;;24.26;54.50;101340.34;5087434;28;20661;-70
2021/07/25 06:28:04;;;;;;;1.70;1.60;;;;;;;24.55;53.88;101344.34;5088778;28;20520;-70
2021/07/25 06:30:33;;;;;;;1.60;1.50;;;;;;;24.71;53.91;101336.84;5087624;28;20201;-70
2021/07/25 06:33:04;;;;;;;2.03;1.70;;;;;;;25.18;53.55;101343.25;5080262;28;20193;-70
2021/07/25 06:35:34;;;;;;;1.97;1.43;;;;;;;25.60;52.42;101342.66;5083747;28;20219;-70
2021/07/25 06:38:03;;;;;;;1.85;1.52;;;;;;;25.81;49.96;101347.47;5085103;28;20200;-70
2021/07/25 06:40:33;;;;;;;2.35;1.60;;;;;;;25.77;49.98;101346.16;5091314;28;20579;-65
2021/07/25 06:43:03;;;;;;;1.65;1.50;;;;;;;25.69;49.05;101350.69;5087655;28;20201;-65
2021/07/25 06:45:33;;;;;;;1.60;1.50;;;;;;;25.41;49.95;101289.06;5084115;28;20203;-65
2021/07/25 06:48:03;;;;;;;3.42;1.50;;;;;;;25.90;48.23;101362.84;5088478;28;20258;-65
2021/07/25 06:50:32;;;;;;;1.50;1.40;;;;;;;26.09;47.01;101354.03;5085890;28;20684;-65
2021/07/25 06:53:01;;;;;;;2.63;1.75;;;;;;;25.94;47.17;101353.16;5088565;28;20196;-65
2021/07/25 06:55:30;;;;;;;1.58;1.45;;;;;;;25.99;46.81;101348.81;5092622;28;20219;-70
2021/07/25 06:57:59;;;;;;;1.10;1.10;;;;;;;25.98;47.07;101349.00;5089954;28;20296;-70
2021/07/25 07:00:27;;;;;;;3.65;1.45;;;;;;;26.23;46.43;101349.56;5083552;28;20205;-70
2021/07/25 07:02:58;;;;;;;3.63;1.50;;;;;;;26.19;46.82;101349.09;5089887;28;20193;-65
2021/07/25 07:05:30;;;;;;;1.33;1.23;;;;;;;26.39;45.27;101352.16;5089461;28;20196;-65
2021/07/25 07:07:59;;;;;;;1.40;1.30;;;;;;;26.77;44.34;101366.59;5089616;28;20196;-65
2021/07/25 07:10:30;;;;;;;2.03;1.83;;;;;;;26.61;43.75;101356.63;5090763;28;20283;-66
2021/07/25 07:13:00;;;;;;;1.70;1.40;;;;;;;26.68;44.09;101345.72;5086521;28;20189;-65
2021/07/25 07:15:30;;;;;;;1.23;1.13;;;;;;;26.88;44.11;101359.69;5082020;28;20243;-66
2021/07/25 07:17:59;;;;;;;1.55;1.45;;;;;;;26.60;43.32;101307.22;5090333;28;20228;-65
2021/07/25 07:20:29;;;;;;;1.70;1.60;;;;;;;26.61;43.18;101358.53;5087812;28;20192;-65
2021/07/25 07:22:59;;;;;;;1.75;1.60;;;;;;;26.62;44.03;101346.47;5085481;28;20237;-66
2021/07/25 07:25:29;;;;;;;1.83;1.50;;;;;;;26.75;43.08;101357.66;5080750;28;20242;-66
2021/07/25 07:27:58;;;;;;;1.25;1.13;;;;;;;27.04;43.21;101361.41;5081836;28;20283;-66
2021/07/25 07:30:26;;;;;;;1.83;1.52;;;;;;;26.97;43.38;101355.78;5087405;28;20204;-64
2021/07/25 07:32:54;;;;;;;1.65;1.55;;;;;;;27.08;43.51;101363.56;5084820;28;20740;-64
2021/07/25 07:35:23;;;;;;;4.28;1.40;;;;;;;27.37;42.65;101358.94;5088421;28;20206;-64
2021/07/25 07:37:53;;;;;;;1.65;1.55;;;;;;;27.75;42.18;101345.69;5089391;28;20227;-70
2021/07/25 07:40:21;;;;;;;1.38;1.27;;;;;;;28.03;42.28;101363.06;5089980;28;20466;-72
2021/07/25 07:42:49;;;;;;;1.40;1.30;;;;;;;28.12;42.45;101356.31;5082101;28;20220;-72
2021/07/25 07:45:18;;;;;;;2.10;1.65;;;;;;;28.01;40.64;101365.19;5076676;28;20560;-71
2021/07/25 07:47:47;;;;;;;1.65;1.40;;;;;;;27.96;41.85;101358.56;5076105;28;20508;-70
2021/07/25 07:50:15;;;;;;;2.60;1.58;;;;;;;28.17;41.33;101352.13;5086174;28;20582;-70
2021/07/25 07:52:43;;;;;;;1.40;1.30;;;;;;;28.33;41.96;101360.06;5080275;28;20271;-71
2021/07/25 07:55:13;;;;;;;1.85;1.40;;;;;;;28.47;40.90;101363.75;5086581;28;20201;-71
2021/07/25 07:57:42;;;;;;;1.60;1.50;;;;;;;28.56;40.24;101355.09;5085630;28;20211;-71
2021/07/25 08:00:11;;;;;;;1.85;1.58;;;;;;;28.56;39.92;101352.31;5077724;28;20208;-71
2021/07/25 08:02:39;;;;;;;1.42;1.33;;;;;;;28.56;40.55;101343.16;5074719;28;20312;-71
2021/07/25 08:05:09;;;;;;;1.60;1.50;;;;;;;28.21;39.68;101331.31;5089827;28;20189;-71
2021/07/25 08:07:38;;;;;;;2.55;1.55;;;;;;;28.04;40.71;101355.63;5069908;28;20197;-65
2021/07/25 08:10:08;;;;;;;2.55;1.55;;;;;;;27.85;41.34;101359.97;5077654;28;20208;-65
2021/07/25 08:12:38;;;;;;;1.50;1.40;;;;;;;27.41;40.75;101308.66;5086592;28;20201;-65
2021/07/25 08:15:09;;;;;;;1.60;1.50;;;;;;;27.87;41.57;101370.84;5089039;28;20192;-65
2021/07/25 08:17:37;;;;;;;1.52;1.42;;;;;;;27.80;41.56;101363.34;5089924;28;20633;-66
2021/07/25 08:20:07;;;;;;;1.60;1.50;;;;;;;28.22;40.76;101355.13;5088665;28;20665;-66
2021/07/25 08:22:35;;;;;;;4.60;2.15;;;;;;;28.27;39.96;101366.44;5074173;28;20624;-66
2021/07/25 08:25:04;;;;;;;2.60;1.40;;;;;;;28.04;39.73;101359.25;5074754;28;20206;-72
2021/07/25 08:27:33;;;;;;;1.40;1.30;;;;;;;28.28;38.38;101360.69;5072810;28;20247;-71
2021/07/25 08:30:03;;;;;;;1.77;1.30;;;;;;;28.25;39.21;101365.78;5084803;28;20205;-71
2021/07/25 08:32:31;;;;;;;1.50;1.40;;;;;;;28.49;38.27;101365.28;5074085;28;20305;-71
2021/07/25 08:34:59;;;;;;;1.50;1.40;;;;;;;28.51;37.44;101365.91;5084105;28;20251;-71
2021/07/25 08:37:27;;;;;;;2.63;1.80;;;;;;;28.61;37.38;101366.38;5077479;28;20219;-71
2021/07/25 08:39:56;;;;;;;1.48;1.38;;;;;;;29.24;37.29;101368.88;5089098;28;20205;-71
2021/07/25 08:42:25;;;;;;;1.77;1.42;;;;;;;29.64;37.26;101370.63;5076954;28;20213;-72
2021/07/25 08:44:55;;;;;;;2.58;1.33;;;;;;;29.93;36.47;101366.53;5079356;28;20224;-67
2021/07/25 08:47:39;;;;;;;2.05;1.60;;;;;;;30.64;36.74;101359.34;5087951;28;20669;-71
2021/07/25 08:50:13;;;;;;;2.17;1.60;;;;;;;30.86;34.35;101358.75;5089660;28;20616;-72
2021/07/25 08:52:43;;;;;;;1.85;1.70;;;;;;;30.44;33.10;101357.47;5086635;28;20272;-71
2021/07/25 08:55:13;;;;;;;2.13;1.70;;;;;;;30.18;33.61;101363.94;5089135;28;20203;-72
2021/07/25 08:57:43;;;;;;;3.00;1.80;;;;;;;29.65;33.23;101363.16;5089248;28;20192;-71
2021/07/25 09:00:14;;;;;;;2.83;1.67;;;;;;;29.60;35.16;101343.56;5088966;28;20924;-71
2021/07/25 09:02:45;;;;;;;1.70;1.60;;;;;;;29.66;33.60;101354.63;5088081;28;20234;-71
2021/07/25 09:05:13;;;;;;;1.63;1.52;;;;;;;29.33;34.52;101359.28;5084105;28;20517;-71
2021/07/25 09:07:45;;;;;;;2.13;1.60;;;;;;;29.40;34.81;101362.09;5088875;28;20224;-71
2021/07/25 09:10:15;;;;;;;3.33;1.77;;;;;;;29.28;34.47;101362.72;5083705;28;20238;-71
2021/07/25 09:12:44;;;;;;;4.38;1.60;;;;;;;29.12;35.78;101357.59;5083937;28;20196;-66
2021/07/25 09:15:15;;;;;;;2.35;1.50;;;;;;;28.70;36.10;101364.25;5087005;28;20291;-66
2021/07/25 09:17:47;;;;;;;4.15;1.40;;;;;;;28.69;35.92;101359.78;5074957;28;20223;-66
2021/07/25 09:20:18;;;;;;;2.53;1.70;;;;;;;29.33;35.71;101357.38;5084449;28;20602;-66
2021/07/25 09:23:08;;;;;;;1.88;1.60;;;;;;;29.10;33.83;101358.88;5085746;28;20238;-66
2021/07/25 09:25:40;;;;;;;2.40;1.60;;;;;;;29.08;34.74;101360.97;5072606;28;20205;-67
2021/07/25 09:28:14;;;;;;;1.58;1.40;;;;;;;28.94;34.36;101368.41;5079427;22;20284;-67
2021/07/25 09:30:43;;;;;;;4.38;1.52;;;;;;;29.21;34.79;101355.47;5042439;28;20211;-67
2021/07/25 09:33:34;;;;;;;1.40;1.30;;;;;;;28.81;33.85;101363.66;5052757;28;20229;-67
2021/07/25 09:36:05;;;;;;;2.72;1.50;;;;;;;28.62;35.83;101365.31;5052232;28;20223;-72
2021/07/25 09:38:33;;;;;;;2.45;1.73;;;;;;;28.84;35.33;101365.16;5049937;28;20210;-68
2021/07/25 09:41:02;;;;;;;1.67;1.50;;;;;;;29.16;34.77;101369.94;5050325;28;20255;-67
2021/07/25 09:43:30;;;;;;;1.50;1.38;;;;;;;29.25;34.76;101373.34;5047854;28;20222;-72
2021/07/25 09:46:00;;;;;;;1.55;1.45;;;;;;;28.96;34.39;101335.84;5048454;28;20708;-72
2021/07/25 09:48:30;;;;;;;1.65;1.55;;;;;;;29.01;34.24;101361.81;5051624;28;20190;-72
2021/07/25 09:51:01;;;;;;;1.48;1.38;;;;;;;29.21;33.65;101361.84;5052479;28;20198;-72
2021/07/25 09:53:46;;;;;;;1.92;1.50;;;;;;;29.31;34.07;101362.28;5052200;28;20284;-72
2021/07/25 09:56:16;;;;;;;1.55;1.45;;;;;;;29.32;33.73;101363.97;5052443;28;20199;-72
2021/07/25 09:58:44;;;;;;;3.10;1.70;;;;;;;29.10;33.47;101359.72;5052882;28;20202;-67
2021/07/25 10:01:40;;;;;;;1.58;1.40;;;;;;;29.22;34.09;101363.56;5052205;28;20281;-68
2021/07/25 10:04:13;;;;;;;1.70;1.40;;;;;;;29.30;33.93;101360.56;5052115;28;20209;-67
2021/07/25 10:06:45;;;;;;;1.60;1.50;;;;;;;29.68;33.84;101363.56;5052685;28;20198;-67
2021/07/25 10:09:14;;;;;;;2.80;1.60;;;;;;;29.73;33.57;101365.72;5052314;28;20225;-67
2021/07/25 10:11:48;;;;;;;1.42;1.33;;;;;;;29.48;33.68;101362.75;5052448;28;20707;-67
2021/07/25 10:14:19;;;;;;;1.38;1.27;;;;;;;29.45;34.10;101365.94;5052232;28;20202;-67
2021/07/25 10:16:52;;;;;;;3.13;1.67;;;;;;;29.00;33.82;101321.38;5037639;28;20198;-67
2021/07/25 10:19:28;;;;;;;1.30;1.20;;;;;;;28.99;34.52;101357.56;5050328;28;20621;-68
2021/07/25 10:21:59;;;;;;;1.33;1.23;;;;;;;28.96;34.63;101367.13;5051820;28;20200;-67
2021/07/25 10:24:28;;;;;;;2.00;1.48;;;;;;;29.09;34.71;101363.56;5041286;28;20289;-72
2021/07/25 10:26:58;;;;;;;1.67;1.42;;;;;;;29.14;34.58;101349.94;5048118;28;20281;-72
2021/07/25 10:29:29;;;;;;;2.33;1.83;;;;;;;29.06;34.32;101366.72;5051569;28;20301;-72
2021/07/25 10:31:58;;;;;;;1.38;1.27;;;;;;;28.81;35.56;101363.66;5035238;28;20229;-71
2021/07/25 10:34:30;;;;;;;1.35;1.25;;;;;;;28.26;36.86;101329.66;5040148;28;20200;-71
2021/07/25 10:37:02;;;;;;;2.63;1.50;;;;;;;28.26;36.83;101367.50;5037221;28;20286;-72
2021/07/25 10:39:32;;;;;;;1.50;1.40;;;;;;;28.44;36.69;101359.47;5051504;28;20307;-71
2021/07/25 10:42:02;;;;;;;1.63;1.50;;;;;;;28.37;36.26;101359.47;5036657;28;20198;-72
2021/07/25 10:44:30;;;;;;;1.80;1.60;;;;;;;28.43;36.33;101369.69;5039902;28;20206;-72
2021/07/25 10:47:24;;;;;;;1.40;1.30;;;;;;;28.30;36.67;101361.34;5045012;28;20566;-71
2021/07/25 10:50:00;;;;;;;1.52;1.42;;;;;;;28.19;37.18;101372.09;5039880;28;20194;-72
2021/07/25 10:53:03;;;;;;;1.75;1.42;;;;;;;28.14;36.36;101370.78;5050141;28;20190;-72
2021/07/25 10:55:48;;;;;;;2.38;1.10;;;;;;;28.05;36.61;101344.38;5049594;28;20211;-71
2021/07/25 10:58:18;;;;;;;1.50;1.40;;;;;;;28.21;36.60;101370.00;5033081;28;20663;-72
2021/07/25 11:00:49;;;;;;;1.50;1.40;;;;;;;28.07;36.21;101369.03;5034559;28;20281;-72
2021/07/25 11:03:41;;;;;;;3.45;1.70;;;;;;;28.04;35.87;101363.94;5043779;28;20647;-71
2021/07/25 11:06:17;;;;;;;1.45;1.35;;;;;;;28.13;35.48;101376.50;5034406;28;20281;-72
2021/07/25 11:08:50;;;;;;;1.63;1.45;;;;;;;28.21;35.67;101375.50;5032836;28;20198;-71
2021/07/25 11:11:57;;;;;;;1.92;1.30;;;;;;;28.04;36.45;101375.81;5052750;28;20688;-71
2021/07/25 11:15:09;;;;;;;1.55;1.45;;;;;;;27.92;37.54;101366.41;4992225;28;20207;-71
2021/07/25 11:17:56;;;;;;;1.67;1.40;;;;;;;27.97;37.09;101379.63;5040616;28;20209;-72
2021/07/25 11:20:35;;;;;;;1.40;1.30;;;;;;;27.95;37.76;101366.00;5046872;28;20285;-72
2021/07/25 11:23:05;;;;;;;1.60;1.40;;;;;;;27.85;36.52;101376.53;5051193;28;20210;-72
2021/07/25 11:25:36;;;;;;;1.50;1.40;;;;;;;27.85;36.06;101371.00;5049446;28;20220;-72
2021/07/25 11:28:05;;;;;;;1.70;1.60;;;;;;;27.82;36.68;101371.41;5049794;28;20674;-72
2021/07/25 11:31:08;;;;;;;1.27;1.17;;;;;;;27.74;35.91;101369.69;5046049;28;20690;-71
2021/07/25 11:33:52;;;;;;;1.45;1.20;;;;;;;27.80;37.00;101368.88;5031668;28;20198;-72
2021/07/25 11:36:22;;;;;;;2.05;1.20;;;;;;;27.93;36.00;101379.16;5046284;28;20205;-71
2021/07/25 11:38:55;;;;;;;1.67;1.30;;;;;;;28.18;36.02;101378.69;5046049;28;20235;-71
2021/07/25 11:41:27;;;;;;;1.92;1.33;;;;;;;28.35;35.56;101371.78;5030548;28;20285;-71
2021/07/25 11:43:58;;;;;;;2.45;1.70;;;;;;;28.38;36.44;101382.41;5046561;28;20216;-71